sensor_id;sensor_type;location;lat;lon;timestamp;P1;durP1;ratioP1;P2;durP2;ratioP2
55467;SDS011;41332;42.702;23.200;2023-05-16T00:00:12;19.70;;;13.00;;
55467;SDS011;41332;42.702;23.200;2023-05-16T00:02:38;16.70;;;12.38;;
55467;SDS011;41332;42.702;23.200;2023-05-16T00:05:04;21.02;;;13.32;;
55467;SDS011;41332;42.702;23.200;2023-05-16T00:07:32;17.83;;;12.10;;
55467;SDS011;41332;42.702;23.200;2023-05-16T00:09:58;22.55;;;13.10;;
55467;SDS011;41332;42.702;23.200;2023-05-16T00:12:23;20.05;;;13.13;;
55467;SDS011;41332;42.702;23.200;2023-05-16T00:14:50;20.60;;;14.15;;
55467;SDS011;41332;42.702;23.200;2023-05-16T00:17:16;20.92;;;13.10;;
55467;SDS011;41332;42.702;23.200;2023-05-16T00:19:43;21.17;;;13.05;;
55467;SDS011;41332;42.702;23.200;2023-05-16T00:22:11;16.27;;;11.18;;
55467;SDS011;41332;42.702;23.200;2023-05-16T00:24:40;18.08;;;11.38;;
55467;SDS011;41332;42.702;23.200;2023-05-16T00:27:06;19.55;;;12.70;;
55467;SDS011;41332;42.702;23.200;2023-05-16T00:29:32;22.92;;;13.32;;
55467;SDS011;41332;42.702;23.200;2023-05-16T00:31:58;15.68;;;12.20;;
55467;SDS011;41332;42.702;23.200;2023-05-16T00:34:23;20.13;;;14.48;;
55467;SDS011;41332;42.702;23.200;2023-05-16T00:36:49;23.15;;;14.75;;
55467;SDS011;41332;42.702;23.200;2023-05-16T00:39:15;26.83;;;12.93;;
55467;SDS011;41332;42.702;23.200;2023-05-16T00:41:40;19.75;;;12.65;;
55467;SDS011;41332;42.702;23.200;2023-05-16T00:44:06;23.08;;;13.82;;
55467;SDS011;41332;42.702;23.200;2023-05-16T00:46:31;19.25;;;12.45;;
55467;SDS011;41332;42.702;23.200;2023-05-16T00:48:56;19.48;;;12.68;;
55467;SDS011;41332;42.702;23.200;2023-05-16T00:51:22;17.33;;;11.77;;
55467;SDS011;41332;42.702;23.200;2023-05-16T00:53:48;18.58;;;12.90;;
55467;SDS011;41332;42.702;23.200;2023-05-16T00:56:14;17.40;;;12.85;;
55467;SDS011;41332;42.702;23.200;2023-05-16T00:58:41;17.63;;;12.40;;
55467;SDS011;41332;42.702;23.200;2023-05-16T01:01:07;25.15;;;13.88;;
55467;SDS011;41332;42.702;23.200;2023-05-16T01:03:32;20.73;;;13.60;;
55467;SDS011;41332;42.702;23.200;2023-05-16T01:05:58;21.95;;;13.27;;
55467;SDS011;41332;42.702;23.200;2023-05-16T01:08:24;20.40;;;13.45;;
55467;SDS011;41332;42.702;23.200;2023-05-16T01:10:52;15.57;;;12.52;;
55467;SDS011;41332;42.702;23.200;2023-05-16T01:13:32;17.88;;;12.93;;
55467;SDS011;41332;42.702;23.200;2023-05-16T01:21:58;17.58;;;12.60;;
55467;SDS011;41332;42.702;23.200;2023-05-16T01:24:32;21.63;;;13.05;;
55467;SDS011;41332;42.702;23.200;2023-05-16T01:27:02;19.67;;;13.02;;
55467;SDS011;41332;42.702;23.200;2023-05-16T01:29:30;17.83;;;12.50;;
55467;SDS011;41332;42.702;23.200;2023-05-16T01:31:55;17.40;;;12.32;;
55467;SDS011;41332;42.702;23.200;2023-05-16T01:34:22;18.42;;;13.32;;
55467;SDS011;41332;42.702;23.200;2023-05-16T01:36:59;16.15;;;11.88;;
55467;SDS011;41332;42.702;23.200;2023-05-16T01:39:40;20.83;;;12.57;;
55467;SDS011;41332;42.702;23.200;2023-05-16T01:42:13;20.17;;;12.15;;
55467;SDS011;41332;42.702;23.200;2023-05-16T01:44:40;23.85;;;14.93;;
55467;SDS011;41332;42.702;23.200;2023-05-16T01:47:15;16.00;;;12.05;;
55467;SDS011;41332;42.702;23.200;2023-05-16T01:52:40;21.95;;;12.48;;
55467;SDS011;41332;42.702;23.200;2023-05-16T01:55:15;17.08;;;12.98;;
55467;SDS011;41332;42.702;23.200;2023-05-16T01:57:45;20.23;;;13.02;;
55467;SDS011;41332;42.702;23.200;2023-05-16T02:00:13;16.63;;;11.52;;
55467;SDS011;41332;42.702;23.200;2023-05-16T02:02:38;18.60;;;13.82;;
55467;SDS011;41332;42.702;23.200;2023-05-16T02:05:04;18.73;;;13.25;;
55467;SDS011;41332;42.702;23.200;2023-05-16T02:07:30;19.67;;;14.10;;
55467;SDS011;41332;42.702;23.200;2023-05-16T02:09:55;22.38;;;14.43;;
55467;SDS011;41332;42.702;23.200;2023-05-16T02:12:21;22.40;;;14.32;;
55467;SDS011;41332;42.702;23.200;2023-05-16T02:14:46;19.23;;;13.07;;
55467;SDS011;41332;42.702;23.200;2023-05-16T02:17:12;23.25;;;15.20;;
55467;SDS011;41332;42.702;23.200;2023-05-16T02:19:37;24.85;;;14.98;;
55467;SDS011;41332;42.702;23.200;2023-05-16T02:22:02;25.20;;;14.73;;
55467;SDS011;41332;42.702;23.200;2023-05-16T02:24:28;24.55;;;15.05;;
55467;SDS011;41332;42.702;23.200;2023-05-16T02:26:53;24.63;;;15.40;;
55467;SDS011;41332;42.702;23.200;2023-05-16T02:29:19;22.95;;;15.95;;
55467;SDS011;41332;42.702;23.200;2023-05-16T02:31:44;25.05;;;16.10;;
55467;SDS011;41332;42.702;23.200;2023-05-16T02:34:10;22.30;;;14.48;;
55467;SDS011;41332;42.702;23.200;2023-05-16T02:36:35;25.88;;;15.07;;
55467;SDS011;41332;42.702;23.200;2023-05-16T02:39:01;23.38;;;15.65;;
55467;SDS011;41332;42.702;23.200;2023-05-16T02:41:28;28.02;;;17.13;;
55467;SDS011;41332;42.702;23.200;2023-05-16T02:43:53;23.15;;;15.07;;
55467;SDS011;41332;42.702;23.200;2023-05-16T02:46:20;28.73;;;15.48;;
55467;SDS011;41332;42.702;23.200;2023-05-16T02:48:48;26.25;;;15.85;;
55467;SDS011;41332;42.702;23.200;2023-05-16T02:51:15;28.53;;;14.73;;
55467;SDS011;41332;42.702;23.200;2023-05-16T02:53:40;23.83;;;15.52;;
55467;SDS011;41332;42.702;23.200;2023-05-16T02:56:05;24.60;;;16.55;;
55467;SDS011;41332;42.702;23.200;2023-05-16T02:58:31;23.90;;;15.50;;
55467;SDS011;41332;42.702;23.200;2023-05-16T03:00:57;20.75;;;15.20;;
55467;SDS011;41332;42.702;23.200;2023-05-16T03:03:22;24.52;;;15.88;;
55467;SDS011;41332;42.702;23.200;2023-05-16T03:05:47;25.55;;;15.82;;
55467;SDS011;41332;42.702;23.200;2023-05-16T03:08:14;22.80;;;15.57;;
55467;SDS011;41332;42.702;23.200;2023-05-16T03:10:39;22.05;;;15.32;;
55467;SDS011;41332;42.702;23.200;2023-05-16T03:13:04;21.83;;;15.30;;
55467;SDS011;41332;42.702;23.200;2023-05-16T03:15:30;21.42;;;14.13;;
55467;SDS011;41332;42.702;23.200;2023-05-16T03:17:55;20.85;;;15.32;;
55467;SDS011;41332;42.702;23.200;2023-05-16T03:20:21;24.00;;;15.25;;
55467;SDS011;41332;42.702;23.200;2023-05-16T03:22:46;21.48;;;15.25;;
55467;SDS011;41332;42.702;23.200;2023-05-16T03:25:12;21.73;;;15.63;;
55467;SDS011;41332;42.702;23.200;2023-05-16T03:27:37;29.00;;;16.73;;
55467;SDS011;41332;42.702;23.200;2023-05-16T03:30:03;22.80;;;16.25;;
55467;SDS011;41332;42.702;23.200;2023-05-16T03:32:29;21.25;;;14.57;;
55467;SDS011;41332;42.702;23.200;2023-05-16T03:34:54;25.52;;;15.10;;
55467;SDS011;41332;42.702;23.200;2023-05-16T03:37:19;20.73;;;14.57;;
55467;SDS011;41332;42.702;23.200;2023-05-16T03:39:45;21.27;;;15.40;;
55467;SDS011;41332;42.702;23.200;2023-05-16T03:42:10;28.30;;;17.05;;
55467;SDS011;41332;42.702;23.200;2023-05-16T03:44:36;26.08;;;17.15;;
55467;SDS011;41332;42.702;23.200;2023-05-16T03:47:01;21.73;;;15.07;;
55467;SDS011;41332;42.702;23.200;2023-05-16T03:49:27;20.50;;;14.57;;
55467;SDS011;41332;42.702;23.200;2023-05-16T03:51:52;18.63;;;14.23;;
55467;SDS011;41332;42.702;23.200;2023-05-16T03:54:18;19.45;;;14.98;;
55467;SDS011;41332;42.702;23.200;2023-05-16T03:56:43;27.08;;;16.20;;
55467;SDS011;41332;42.702;23.200;2023-05-16T03:59:09;26.80;;;16.27;;
55467;SDS011;41332;42.702;23.200;2023-05-16T04:01:34;22.92;;;15.88;;
55467;SDS011;41332;42.702;23.200;2023-05-16T04:03:59;19.85;;;15.30;;
55467;SDS011;41332;42.702;23.200;2023-05-16T04:06:25;26.98;;;16.15;;
55467;SDS011;41332;42.702;23.200;2023-05-16T04:08:51;27.42;;;16.85;;
55467;SDS011;41332;42.702;23.200;2023-05-16T04:11:19;25.92;;;16.63;;
55467;SDS011;41332;42.702;23.200;2023-05-16T04:13:45;21.65;;;16.13;;
55467;SDS011;41332;42.702;23.200;2023-05-16T04:16:10;21.42;;;15.55;;
55467;SDS011;41332;42.702;23.200;2023-05-16T04:18:37;22.23;;;15.70;;
55467;SDS011;41332;42.702;23.200;2023-05-16T04:21:02;24.83;;;17.40;;
55467;SDS011;41332;42.702;23.200;2023-05-16T04:23:28;26.95;;;16.85;;
55467;SDS011;41332;42.702;23.200;2023-05-16T04:25:53;23.15;;;16.85;;
55467;SDS011;41332;42.702;23.200;2023-05-16T04:28:21;28.55;;;17.20;;
55467;SDS011;41332;42.702;23.200;2023-05-16T04:30:49;28.25;;;16.77;;
55467;SDS011;41332;42.702;23.200;2023-05-16T04:33:15;27.13;;;17.00;;
55467;SDS011;41332;42.702;23.200;2023-05-16T04:35:41;23.83;;;17.65;;
55467;SDS011;41332;42.702;23.200;2023-05-16T04:38:09;24.60;;;17.45;;
55467;SDS011;41332;42.702;23.200;2023-05-16T04:40:34;23.60;;;16.80;;
55467;SDS011;41332;42.702;23.200;2023-05-16T04:43:00;23.40;;;16.55;;
55467;SDS011;41332;42.702;23.200;2023-05-16T04:45:25;23.55;;;16.13;;
55467;SDS011;41332;42.702;23.200;2023-05-16T04:47:50;26.60;;;15.60;;
55467;SDS011;41332;42.702;23.200;2023-05-16T04:50:19;24.33;;;16.00;;
55467;SDS011;41332;42.702;23.200;2023-05-16T04:52:44;28.52;;;17.55;;
55467;SDS011;41332;42.702;23.200;2023-05-16T04:55:10;28.98;;;17.42;;
55467;SDS011;41332;42.702;23.200;2023-05-16T04:57:36;27.52;;;19.92;;
55467;SDS011;41332;42.702;23.200;2023-05-16T05:00:01;25.85;;;16.92;;
55467;SDS011;41332;42.702;23.200;2023-05-16T05:02:29;23.02;;;17.02;;
55467;SDS011;41332;42.702;23.200;2023-05-16T05:04:55;26.77;;;17.00;;
55467;SDS011;41332;42.702;23.200;2023-05-16T05:07:20;25.70;;;17.05;;
55467;SDS011;41332;42.702;23.200;2023-05-16T05:09:45;23.95;;;17.95;;
55467;SDS011;41332;42.702;23.200;2023-05-16T05:12:11;25.25;;;17.08;;
55467;SDS011;41332;42.702;23.200;2023-05-16T05:14:36;25.35;;;16.27;;
55467;SDS011;41332;42.702;23.200;2023-05-16T05:17:02;26.48;;;16.40;;
55467;SDS011;41332;42.702;23.200;2023-05-16T05:19:27;25.13;;;17.05;;
55467;SDS011;41332;42.702;23.200;2023-05-16T05:21:52;22.80;;;16.48;;
55467;SDS011;41332;42.702;23.200;2023-05-16T05:24:18;21.50;;;14.88;;
55467;SDS011;41332;42.702;23.200;2023-05-16T05:26:43;21.65;;;16.27;;
55467;SDS011;41332;42.702;23.200;2023-05-16T05:29:08;22.38;;;15.35;;
55467;SDS011;41332;42.702;23.200;2023-05-16T05:31:34;24.17;;;17.08;;
55467;SDS011;41332;42.702;23.200;2023-05-16T05:33:59;25.23;;;16.40;;
55467;SDS011;41332;42.702;23.200;2023-05-16T05:36:25;26.52;;;17.50;;
55467;SDS011;41332;42.702;23.200;2023-05-16T05:38:50;24.27;;;16.40;;
55467;SDS011;41332;42.702;23.200;2023-05-16T05:41:16;24.77;;;17.35;;
55467;SDS011;41332;42.702;23.200;2023-05-16T05:43:41;23.70;;;16.60;;
55467;SDS011;41332;42.702;23.200;2023-05-16T05:46:07;24.63;;;15.90;;
55467;SDS011;41332;42.702;23.200;2023-05-16T05:48:32;21.40;;;16.30;;
55467;SDS011;41332;42.702;23.200;2023-05-16T05:50:58;20.75;;;15.98;;
55467;SDS011;41332;42.702;23.200;2023-05-16T05:53:23;24.33;;;16.25;;
55467;SDS011;41332;42.702;23.200;2023-05-16T05:55:49;23.40;;;17.02;;
55467;SDS011;41332;42.702;23.200;2023-05-16T05:58:14;22.00;;;16.77;;
55467;SDS011;41332;42.702;23.200;2023-05-16T06:00:40;28.75;;;16.52;;
55467;SDS011;41332;42.702;23.200;2023-05-16T06:03:05;21.85;;;15.88;;
55467;SDS011;41332;42.702;23.200;2023-05-16T06:05:30;26.75;;;17.75;;
55467;SDS011;41332;42.702;23.200;2023-05-16T06:07:56;22.95;;;15.07;;
55467;SDS011;41332;42.702;23.200;2023-05-16T06:10:21;23.35;;;16.02;;
55467;SDS011;41332;42.702;23.200;2023-05-16T06:12:47;26.48;;;15.93;;
55467;SDS011;41332;42.702;23.200;2023-05-16T06:15:12;25.60;;;15.40;;
55467;SDS011;41332;42.702;23.200;2023-05-16T06:17:37;21.63;;;16.48;;
55467;SDS011;41332;42.702;23.200;2023-05-16T06:20:03;23.60;;;16.95;;
55467;SDS011;41332;42.702;23.200;2023-05-16T06:22:29;23.85;;;16.67;;
55467;SDS011;41332;42.702;23.200;2023-05-16T06:24:55;24.33;;;14.55;;
55467;SDS011;41332;42.702;23.200;2023-05-16T06:27:20;20.50;;;14.88;;
55467;SDS011;41332;42.702;23.200;2023-05-16T06:29:46;19.90;;;15.05;;
55467;SDS011;41332;42.702;23.200;2023-05-16T06:32:11;21.95;;;16.88;;
55467;SDS011;41332;42.702;23.200;2023-05-16T06:34:37;22.23;;;16.13;;
55467;SDS011;41332;42.702;23.200;2023-05-16T06:37:02;23.13;;;15.40;;
55467;SDS011;41332;42.702;23.200;2023-05-16T06:39:28;26.02;;;16.77;;
55467;SDS011;41332;42.702;23.200;2023-05-16T06:41:53;26.52;;;15.93;;
55467;SDS011;41332;42.702;23.200;2023-05-16T06:44:19;23.92;;;16.15;;
55467;SDS011;41332;42.702;23.200;2023-05-16T06:46:44;25.65;;;14.77;;
55467;SDS011;41332;42.702;23.200;2023-05-16T06:49:10;23.85;;;16.20;;
55467;SDS011;41332;42.702;23.200;2023-05-16T06:51:35;20.52;;;14.73;;
55467;SDS011;41332;42.702;23.200;2023-05-16T06:54:00;24.63;;;14.20;;
55467;SDS011;41332;42.702;23.200;2023-05-16T06:56:26;18.45;;;14.93;;
55467;SDS011;41332;42.702;23.200;2023-05-16T06:58:52;20.20;;;13.20;;
55467;SDS011;41332;42.702;23.200;2023-05-16T07:01:18;19.77;;;13.35;;
55467;SDS011;41332;42.702;23.200;2023-05-16T07:03:43;19.02;;;13.02;;
55467;SDS011;41332;42.702;23.200;2023-05-16T07:06:09;16.20;;;13.07;;
55467;SDS011;41332;42.702;23.200;2023-05-16T07:08:34;14.98;;;12.52;;
55467;SDS011;41332;42.702;23.200;2023-05-16T07:11:00;14.27;;;11.00;;
55467;SDS011;41332;42.702;23.200;2023-05-16T07:13:26;10.77;;;8.77;;
55467;SDS011;41332;42.702;23.200;2023-05-16T07:15:51;20.85;;;9.45;;
55467;SDS011;41332;42.702;23.200;2023-05-16T07:18:18;22.70;;;9.15;;
55467;SDS011;41332;42.702;23.200;2023-05-16T07:20:43;14.95;;;8.80;;
55467;SDS011;41332;42.702;23.200;2023-05-16T07:23:09;17.23;;;9.82;;
55467;SDS011;41332;42.702;23.200;2023-05-16T07:25:35;18.30;;;11.65;;
55467;SDS011;41332;42.702;23.200;2023-05-16T07:28:00;21.88;;;12.55;;
55467;SDS011;41332;42.702;23.200;2023-05-16T07:30:26;21.80;;;14.00;;
55467;SDS011;41332;42.702;23.200;2023-05-16T07:32:51;18.30;;;12.70;;
55467;SDS011;41332;42.702;23.200;2023-05-16T07:35:17;20.70;;;14.00;;
55467;SDS011;41332;42.702;23.200;2023-05-16T07:37:42;18.33;;;14.45;;
55467;SDS011;41332;42.702;23.200;2023-05-16T07:40:08;20.08;;;13.70;;
55467;SDS011;41332;42.702;23.200;2023-05-16T07:42:35;22.17;;;14.77;;
55467;SDS011;41332;42.702;23.200;2023-05-16T07:45:00;21.98;;;13.70;;
55467;SDS011;41332;42.702;23.200;2023-05-16T07:47:26;19.90;;;14.00;;
55467;SDS011;41332;42.702;23.200;2023-05-16T07:49:52;16.00;;;11.68;;
55467;SDS011;41332;42.702;23.200;2023-05-16T07:52:17;15.32;;;12.02;;
55467;SDS011;41332;42.702;23.200;2023-05-16T07:54:44;16.92;;;10.25;;
55467;SDS011;41332;42.702;23.200;2023-05-16T07:57:10;13.32;;;9.07;;
55467;SDS011;41332;42.702;23.200;2023-05-16T07:59:37;11.70;;;9.13;;
55467;SDS011;41332;42.702;23.200;2023-05-16T08:02:02;12.40;;;8.68;;
55467;SDS011;41332;42.702;23.200;2023-05-16T08:04:28;12.88;;;7.18;;
55467;SDS011;41332;42.702;23.200;2023-05-16T08:06:53;13.65;;;8.25;;
55467;SDS011;41332;42.702;23.200;2023-05-16T08:09:19;12.27;;;8.00;;
55467;SDS011;41332;42.702;23.200;2023-05-16T08:11:44;9.45;;;7.03;;
55467;SDS011;41332;42.702;23.200;2023-05-16T08:14:10;14.20;;;7.45;;
55467;SDS011;41332;42.702;23.200;2023-05-16T08:16:35;22.27;;;8.77;;
55467;SDS011;41332;42.702;23.200;2023-05-16T08:19:01;13.60;;;8.07;;
55467;SDS011;41332;42.702;23.200;2023-05-16T08:21:26;12.27;;;8.15;;
55467;SDS011;41332;42.702;23.200;2023-05-16T08:23:52;11.00;;;8.07;;
55467;SDS011;41332;42.702;23.200;2023-05-16T08:26:18;15.40;;;7.38;;
55467;SDS011;41332;42.702;23.200;2023-05-16T08:28:43;11.23;;;8.00;;
55467;SDS011;41332;42.702;23.200;2023-05-16T08:31:08;17.30;;;9.02;;
55467;SDS011;41332;42.702;23.200;2023-05-16T08:33:34;14.07;;;8.68;;
55467;SDS011;41332;42.702;23.200;2023-05-16T08:36:00;14.30;;;8.23;;
55467;SDS011;41332;42.702;23.200;2023-05-16T08:38:26;11.65;;;7.68;;
55467;SDS011;41332;42.702;23.200;2023-05-16T08:40:51;12.07;;;7.40;;
55467;SDS011;41332;42.702;23.200;2023-05-16T08:43:16;14.45;;;6.65;;
55467;SDS011;41332;42.702;23.200;2023-05-16T08:45:42;11.45;;;6.45;;
55467;SDS011;41332;42.702;23.200;2023-05-16T08:48:08;11.90;;;7.43;;
55467;SDS011;41332;42.702;23.200;2023-05-16T08:50:34;18.17;;;7.05;;
55467;SDS011;41332;42.702;23.200;2023-05-16T08:53:04;11.18;;;6.90;;
55467;SDS011;41332;42.702;23.200;2023-05-16T08:55:32;15.77;;;8.15;;
55467;SDS011;41332;42.702;23.200;2023-05-16T08:57:59;9.65;;;6.40;;
55467;SDS011;41332;42.702;23.200;2023-05-16T09:00:25;21.90;;;6.30;;
55467;SDS011;41332;42.702;23.200;2023-05-16T09:02:50;10.20;;;6.07;;
55467;SDS011;41332;42.702;23.200;2023-05-16T09:05:17;10.25;;;6.35;;
55467;SDS011;41332;42.702;23.200;2023-05-16T09:07:43;7.43;;;6.70;;
55467;SDS011;41332;42.702;23.200;2023-05-16T09:10:09;10.73;;;6.03;;
55467;SDS011;41332;42.702;23.200;2023-05-16T09:12:35;8.95;;;6.00;;
55467;SDS011;41332;42.702;23.200;2023-05-16T09:15:01;7.88;;;5.90;;
55467;SDS011;41332;42.702;23.200;2023-05-16T09:17:35;18.60;;;7.10;;
55467;SDS011;41332;42.702;23.200;2023-05-16T09:20:10;9.43;;;6.10;;
55467;SDS011;41332;42.702;23.200;2023-05-16T09:22:48;9.80;;;6.00;;
55467;SDS011;41332;42.702;23.200;2023-05-16T09:25:18;6.38;;;5.80;;
55467;SDS011;41332;42.702;23.200;2023-05-16T09:27:47;9.18;;;5.38;;
55467;SDS011;41332;42.702;23.200;2023-05-16T09:30:17;9.40;;;6.13;;
55467;SDS011;41332;42.702;23.200;2023-05-16T09:32:46;12.38;;;7.70;;
55467;SDS011;41332;42.702;23.200;2023-05-16T09:35:14;6.40;;;5.25;;
55467;SDS011;41332;42.702;23.200;2023-05-16T09:37:50;7.88;;;6.95;;
55467;SDS011;41332;42.702;23.200;2023-05-16T09:40:19;7.82;;;5.93;;
55467;SDS011;41332;42.702;23.200;2023-05-16T09:45:12;6.88;;;6.03;;
55467;SDS011;41332;42.702;23.200;2023-05-16T09:47:38;8.20;;;6.15;;
55467;SDS011;41332;42.702;23.200;2023-05-16T09:50:10;14.20;;;6.38;;
55467;SDS011;41332;42.702;23.200;2023-05-16T09:52:37;13.18;;;6.72;;
55467;SDS011;41332;42.702;23.200;2023-05-16T09:55:05;10.93;;;5.97;;
55467;SDS011;41332;42.702;23.200;2023-05-16T09:57:35;8.00;;;6.20;;
55467;SDS011;41332;42.702;23.200;2023-05-16T10:00:01;13.30;;;6.10;;
55467;SDS011;41332;42.702;23.200;2023-05-16T10:02:32;6.38;;;5.88;;
55467;SDS011;41332;42.702;23.200;2023-05-16T10:04:59;9.15;;;6.53;;
55467;SDS011;41332;42.702;23.200;2023-05-16T10:07:24;7.28;;;6.20;;
55467;SDS011;41332;42.702;23.200;2023-05-16T10:09:50;7.53;;;6.30;;
55467;SDS011;41332;42.702;23.200;2023-05-16T10:12:18;7.63;;;6.85;;
55467;SDS011;41332;42.702;23.200;2023-05-16T10:14:50;12.65;;;6.20;;
55467;SDS011;41332;42.702;23.200;2023-05-16T10:17:16;8.45;;;6.10;;
55467;SDS011;41332;42.702;23.200;2023-05-16T10:19:42;11.30;;;6.82;;
55467;SDS011;41332;42.702;23.200;2023-05-16T10:22:09;9.47;;;6.60;;
55467;SDS011;41332;42.702;23.200;2023-05-16T10:24:44;13.07;;;7.00;;
55467;SDS011;41332;42.702;23.200;2023-05-16T10:27:14;11.68;;;6.95;;
55467;SDS011;41332;42.702;23.200;2023-05-16T10:29:40;12.48;;;7.43;;
55467;SDS011;41332;42.702;23.200;2023-05-16T10:32:07;12.27;;;7.72;;
55467;SDS011;41332;42.702;23.200;2023-05-16T10:34:33;14.27;;;6.63;;
55467;SDS011;41332;42.702;23.200;2023-05-16T10:36:59;10.40;;;7.72;;
55467;SDS011;41332;42.702;23.200;2023-05-16T10:39:25;8.00;;;7.00;;
55467;SDS011;41332;42.702;23.200;2023-05-16T10:41:51;11.27;;;7.43;;
55467;SDS011;41332;42.702;23.200;2023-05-16T10:44:20;17.90;;;9.13;;
55467;SDS011;41332;42.702;23.200;2023-05-16T10:46:45;11.57;;;7.82;;
55467;SDS011;41332;42.702;23.200;2023-05-16T10:49:18;13.32;;;8.30;;
55467;SDS011;41332;42.702;23.200;2023-05-16T10:54:32;12.23;;;8.00;;
55467;SDS011;41332;42.702;23.200;2023-05-16T10:57:02;9.07;;;7.20;;
55467;SDS011;41332;42.702;23.200;2023-05-16T10:59:30;10.25;;;7.35;;
55467;SDS011;41332;42.702;23.200;2023-05-16T11:02:06;12.25;;;7.38;;
55467;SDS011;41332;42.702;23.200;2023-05-16T11:04:50;11.68;;;6.70;;
55467;SDS011;41332;42.702;23.200;2023-05-16T11:07:17;9.80;;;7.85;;
55467;SDS011;41332;42.702;23.200;2023-05-16T11:09:43;8.23;;;7.25;;
55467;SDS011;41332;42.702;23.200;2023-05-16T11:12:09;15.85;;;7.18;;
55467;SDS011;41332;42.702;23.200;2023-05-16T11:14:38;12.43;;;6.35;;
55467;SDS011;41332;42.702;23.200;2023-05-16T11:17:20;11.85;;;8.18;;
55467;SDS011;41332;42.702;23.200;2023-05-16T11:19:48;14.40;;;7.55;;
55467;SDS011;41332;42.702;23.200;2023-05-16T11:25:02;9.23;;;7.40;;
55467;SDS011;41332;42.702;23.200;2023-05-16T11:27:32;18.05;;;7.40;;
55467;SDS011;41332;42.702;23.200;2023-05-16T11:30:09;8.88;;;6.90;;
55467;SDS011;41332;42.702;23.200;2023-05-16T11:32:36;10.10;;;7.32;;
55467;SDS011;41332;42.702;23.200;2023-05-16T11:35:03;12.32;;;7.30;;
55467;SDS011;41332;42.702;23.200;2023-05-16T11:37:31;8.80;;;7.20;;
55467;SDS011;41332;42.702;23.200;2023-05-16T11:39:59;13.82;;;8.32;;
55467;SDS011;41332;42.702;23.200;2023-05-16T11:42:29;11.02;;;8.02;;
55467;SDS011;41332;42.702;23.200;2023-05-16T11:45:02;11.15;;;7.70;;
55467;SDS011;41332;42.702;23.200;2023-05-16T11:47:39;17.10;;;8.48;;
55467;SDS011;41332;42.702;23.200;2023-05-16T11:50:11;9.07;;;7.82;;
55467;SDS011;41332;42.702;23.200;2023-05-16T11:52:38;19.13;;;8.40;;
55467;SDS011;41332;42.702;23.200;2023-05-16T11:55:07;9.05;;;7.03;;
55467;SDS011;41332;42.702;23.200;2023-05-16T11:57:35;9.70;;;7.35;;
55467;SDS011;41332;42.702;23.200;2023-05-16T12:00:04;13.48;;;8.25;;
55467;SDS011;41332;42.702;23.200;2023-05-16T12:02:40;11.80;;;8.30;;
55467;SDS011;41332;42.702;23.200;2023-05-16T12:05:09;9.00;;;7.47;;
55467;SDS011;41332;42.702;23.200;2023-05-16T12:07:37;9.90;;;7.63;;
55467;SDS011;41332;42.702;23.200;2023-05-16T12:10:05;12.70;;;8.75;;
55467;SDS011;41332;42.702;23.200;2023-05-16T12:12:32;14.45;;;8.55;;
55467;SDS011;41332;42.702;23.200;2023-05-16T12:14:58;11.95;;;7.80;;
55467;SDS011;41332;42.702;23.200;2023-05-16T12:17:23;12.90;;;8.73;;
55467;SDS011;41332;42.702;23.200;2023-05-16T12:19:49;11.20;;;8.73;;
55467;SDS011;41332;42.702;23.200;2023-05-16T12:22:15;22.30;;;8.98;;
55467;SDS011;41332;42.702;23.200;2023-05-16T12:27:08;10.98;;;8.48;;
55467;SDS011;41332;42.702;23.200;2023-05-16T12:29:33;11.10;;;7.93;;
55467;SDS011;41332;42.702;23.200;2023-05-16T12:31:59;17.45;;;9.25;;
55467;SDS011;41332;42.702;23.200;2023-05-16T12:34:27;16.93;;;7.67;;
55467;SDS011;41332;42.702;23.200;2023-05-16T12:36:53;16.13;;;7.82;;
55467;SDS011;41332;42.702;23.200;2023-05-16T12:39:19;11.23;;;7.28;;
55467;SDS011;41332;42.702;23.200;2023-05-16T12:41:45;14.50;;;8.27;;
55467;SDS011;41332;42.702;23.200;2023-05-16T12:46:45;12.60;;;7.57;;
55467;SDS011;41332;42.702;23.200;2023-05-16T12:49:13;15.68;;;8.55;;
55467;SDS011;41332;42.702;23.200;2023-05-16T12:51:39;12.20;;;8.60;;
55467;SDS011;41332;42.702;23.200;2023-05-16T12:54:13;12.65;;;7.85;;
55467;SDS011;41332;42.702;23.200;2023-05-16T12:56:39;16.67;;;8.20;;
55467;SDS011;41332;42.702;23.200;2023-05-16T12:59:05;14.00;;;8.63;;
55467;SDS011;41332;42.702;23.200;2023-05-16T13:01:31;12.23;;;8.45;;
55467;SDS011;41332;42.702;23.200;2023-05-16T13:03:56;15.00;;;8.30;;
55467;SDS011;41332;42.702;23.200;2023-05-16T13:06:22;15.73;;;8.57;;
55467;SDS011;41332;42.702;23.200;2023-05-16T13:08:47;13.73;;;8.55;;
55467;SDS011;41332;42.702;23.200;2023-05-16T13:11:13;9.85;;;8.88;;
55467;SDS011;41332;42.702;23.200;2023-05-16T13:13:38;14.98;;;9.23;;
55467;SDS011;41332;42.702;23.200;2023-05-16T13:16:03;8.93;;;7.93;;
55467;SDS011;41332;42.702;23.200;2023-05-16T13:18:29;10.88;;;7.97;;
55467;SDS011;41332;42.702;23.200;2023-05-16T13:20:58;9.02;;;8.10;;
55467;SDS011;41332;42.702;23.200;2023-05-16T13:23:24;12.20;;;8.32;;
55467;SDS011;41332;42.702;23.200;2023-05-16T13:25:49;10.55;;;7.63;;
55467;SDS011;41332;42.702;23.200;2023-05-16T13:28:16;11.02;;;8.65;;
55467;SDS011;41332;42.702;23.200;2023-05-16T13:30:42;14.52;;;8.82;;
55467;SDS011;41332;42.702;23.200;2023-05-16T13:33:07;18.42;;;9.45;;
55467;SDS011;41332;42.702;23.200;2023-05-16T13:35:32;13.75;;;9.38;;
55467;SDS011;41332;42.702;23.200;2023-05-16T13:37:58;17.38;;;9.05;;
55467;SDS011;41332;42.702;23.200;2023-05-16T13:40:23;12.77;;;8.55;;
55467;SDS011;41332;42.702;23.200;2023-05-16T13:42:49;17.85;;;8.93;;
55467;SDS011;41332;42.702;23.200;2023-05-16T13:45:14;15.80;;;8.77;;
55467;SDS011;41332;42.702;23.200;2023-05-16T13:47:40;13.60;;;9.80;;
55467;SDS011;41332;42.702;23.200;2023-05-16T13:50:05;9.82;;;8.35;;
55467;SDS011;41332;42.702;23.200;2023-05-16T13:52:34;15.18;;;8.90;;
55467;SDS011;41332;42.702;23.200;2023-05-16T13:55:01;12.18;;;9.23;;
55467;SDS011;41332;42.702;23.200;2023-05-16T13:57:27;22.97;;;11.33;;
55467;SDS011;41332;42.702;23.200;2023-05-16T13:59:53;14.80;;;10.57;;
55467;SDS011;41332;42.702;23.200;2023-05-16T14:02:18;20.73;;;9.68;;
55467;SDS011;41332;42.702;23.200;2023-05-16T14:04:43;11.85;;;10.10;;
55467;SDS011;41332;42.702;23.200;2023-05-16T14:07:09;18.00;;;10.55;;
55467;SDS011;41332;42.702;23.200;2023-05-16T14:09:35;13.23;;;10.73;;
55467;SDS011;41332;42.702;23.200;2023-05-16T14:12:03;13.05;;;11.20;;
55467;SDS011;41332;42.702;23.200;2023-05-16T14:14:34;18.85;;;11.77;;
55467;SDS011;41332;42.702;23.200;2023-05-16T14:17:00;16.30;;;11.32;;
55467;SDS011;41332;42.702;23.200;2023-05-16T14:19:26;17.48;;;12.35;;
55467;SDS011;41332;42.702;23.200;2023-05-16T14:21:51;22.50;;;10.68;;
55467;SDS011;41332;42.702;23.200;2023-05-16T14:24:17;14.52;;;11.68;;
55467;SDS011;41332;42.702;23.200;2023-05-16T14:26:42;21.83;;;12.30;;
55467;SDS011;41332;42.702;23.200;2023-05-16T14:29:08;17.27;;;12.30;;
55467;SDS011;41332;42.702;23.200;2023-05-16T14:31:33;18.90;;;13.50;;
55467;SDS011;41332;42.702;23.200;2023-05-16T14:34:00;17.25;;;12.48;;